aviador You're here:

KMTO Decoded Metar

MATTOON/CHARLEST in IL, USA
Report Time2018-07-23 14:53:00
UTC Time2018-07-23 15:39:50
Flight Rules vfr VFR
Wind330° at 10 kt
W.Decomp.*RWY 36: 8.9 kt HW 4.5 kt LCW
RWY 29: 7.3 kt HW 6.8 kt RCW
RWY 06: 0.5 kt HW 10 kt LCW
W.Rank330° ranks 13
Current wind is above 330° avg. (9.4)
Visibility9999 m
Phenomena:N/A
Clouds:Broken 085 Hf
Expected CloudBase > 1,600 ft AGL from Temp-Dew spread
Ceiling8,500 ft
Temp22°C (ISA +8)
Dew Point18°C (78% RH)
AAT21.2°C
QNH1015 hPa
Density Alt1,890 ft
Elevation702 ft
Report Wrong Elevation
Raw Report
KMTO 231453Z AUTO 33010KT 10SM BKN085 22/18 A2996 RMK AO2 SLP139
T02220183 51006=

Extra information for KMTO:More info

Metar Taf Metar & Taf Last 4 Metars F.Rules Stats Wind Profile Meteogram Temp Stats Airport Information Weather charts Add Link Nearby VenuesMetar ALERT Operation Metar Decoded Social comments

AIRNAV info for KMTO